createdAt,value
2022-10-14T00:02:05.216Z,43.42
2022-10-14T00:04:32.825Z,36.28
2022-10-14T00:07:03.213Z,37.85
2022-10-14T00:09:30.568Z,35.50
2022-10-14T00:11:57.879Z,41.80
2022-10-14T00:14:25.444Z,37.95
2022-10-14T00:16:55.773Z,37.05
2022-10-14T00:19:23.103Z,34.60
2022-10-14T00:21:50.739Z,36.00
2022-10-14T00:24:18.934Z,41.28
2022-10-14T00:26:46.992Z,34.05
2022-10-14T00:29:18.942Z,41.00
2022-10-14T00:31:47.272Z,34.38
2022-10-14T00:34:16.188Z,35.88
2022-10-14T00:36:47.196Z,35.08
2022-10-14T00:39:19.213Z,33.67
2022-10-14T00:41:46.722Z,36.80
2022-10-14T00:44:13.840Z,36.78
2022-10-14T00:46:47.844Z,31.83
2022-10-14T00:49:29.057Z,36.00
2022-10-14T00:52:02.823Z,35.67
2022-10-14T00:54:44.013Z,32.58
2022-10-14T00:57:12.041Z,33.78
2022-10-14T00:59:39.607Z,32.38
2022-10-14T01:02:07.217Z,30.55
2022-10-14T01:04:39.024Z,31.70
2022-10-14T01:07:30.335Z,27.88
2022-10-14T01:10:19.944Z,28.67
2022-10-14T01:13:29.336Z,30.20
2022-10-14T01:16:31.191Z,28.13
2022-10-14T01:19:07.155Z,31.85
2022-10-14T01:22:00.281Z,29.88
2022-10-14T01:25:05.132Z,30.25
2022-10-14T01:28:17.679Z,29.40
2022-10-14T01:30:50.282Z,31.88
2022-10-14T01:36:21.225Z,30.13
2022-10-14T01:39:11.015Z,36.00
2022-10-14T01:41:49.218Z,28.55
2022-10-14T01:44:19.609Z,26.10
2022-10-14T01:46:55.325Z,29.65
2022-10-14T01:49:36.982Z,24.27
2022-10-14T01:52:21.171Z,29.30
2022-10-14T01:54:53.458Z,30.65
2022-10-14T01:57:28.116Z,28.73
2022-10-14T01:59:57.071Z,28.05
2022-10-14T02:02:25.621Z,31.05
2022-10-14T02:04:52.987Z,39.65
2022-10-14T02:07:59.234Z,35.58
2022-10-14T02:10:40.783Z,30.60
2022-10-14T02:13:39.656Z,29.65
2022-10-14T02:16:21.413Z,33.78
2022-10-14T02:19:16.123Z,40.72
2022-10-14T02:22:00.390Z,32.22
2022-10-14T02:24:53.113Z,33.63
2022-10-14T02:27:25.104Z,34.42
2022-10-14T02:29:56.370Z,36.40
2022-10-14T02:32:28.180Z,36.80
2022-10-14T02:35:00.208Z,38.42
2022-10-14T02:38:08.519Z,37.33
2022-10-14T02:40:45.488Z,41.65
2022-10-14T02:43:12.993Z,42.95
2022-10-14T02:45:43.707Z,39.10
2022-10-14T02:48:51.129Z,47.85
2022-10-14T02:51:19.705Z,47.22
2022-10-14T02:53:46.878Z,36.13
2022-10-14T02:56:14.769Z,39.38
2022-10-14T02:58:42.410Z,34.33
2022-10-14T03:01:09.769Z,45.63
2022-10-14T03:03:37.122Z,40.80
2022-10-14T03:06:04.796Z,37.30
2022-10-14T03:08:33.953Z,39.45
2022-10-14T03:11:01.873Z,34.95
2022-10-14T03:13:29.676Z,38.05
2022-10-14T03:16:00.762Z,35.88
2022-10-14T03:19:43.273Z,34.37
2022-10-14T03:26:02.711Z,33.83
2022-10-14T03:28:36.117Z,36.25
2022-10-14T03:31:20.681Z,34.60
2022-10-14T03:34:06.467Z,38.83
2022-10-14T03:36:35.263Z,43.25
2022-10-14T03:39:16.339Z,35.03
2022-10-14T03:41:48.654Z,34.40
2022-10-14T03:44:19.038Z,36.78
2022-10-14T03:47:06.341Z,36.03
2022-10-14T03:49:34.355Z,37.75
2022-10-14T03:52:09.432Z,38.10
2022-10-14T03:54:38.180Z,37.03
2022-10-14T03:57:06.254Z,41.20
2022-10-14T03:59:41.995Z,41.70
2022-10-14T04:02:09.638Z,37.38
2022-10-14T04:04:40.511Z,40.22
2022-10-14T04:07:29.608Z,42.42
2022-10-14T04:09:58.237Z,38.30
2022-10-14T04:12:26.380Z,46.05
2022-10-14T04:15:05.324Z,35.60
2022-10-14T04:21:28.430Z,36.03
2022-10-14T04:23:55.798Z,34.42
2022-10-14T04:26:35.520Z,39.95
2022-10-14T04:29:04.382Z,38.65
2022-10-14T04:31:40.080Z,37.42
2022-10-14T04:34:07.248Z,38.70
2022-10-14T04:36:38.719Z,38.22
2022-10-14T04:39:19.490Z,43.25
2022-10-14T04:41:47.722Z,44.67
2022-10-14T04:44:18.560Z,36.70
2022-10-14T04:47:08.663Z,33.53
2022-10-14T04:49:37.783Z,40.30
2022-10-14T04:52:14.004Z,38.97
2022-10-14T04:55:08.193Z,43.95
2022-10-14T04:57:45.015Z,42.17
2022-10-14T05:00:16.145Z,39.45
2022-10-14T05:02:49.272Z,37.38
2022-10-14T05:05:29.995Z,42.80
2022-10-14T05:08:00.483Z,42.97
2022-10-14T05:10:44.618Z,46.15
2022-10-14T05:13:24.192Z,51.00
2022-10-14T05:16:00.478Z,40.97
2022-10-14T05:18:37.410Z,48.75
2022-10-14T05:25:22.915Z,46.78
2022-10-14T05:28:35.201Z,47.70
2022-10-14T05:31:30.918Z,54.25
2022-10-14T05:34:07.722Z,47.55
2022-10-14T05:36:50.350Z,50.67
2022-10-14T05:41:04.891Z,50.25
2022-10-14T06:10:11.401Z,51.45
2022-10-14T06:15:57.965Z,54.25
2022-10-14T06:18:38.668Z,48.10
2022-10-14T06:21:44.308Z,48.47
2022-10-14T06:24:34.537Z,46.13
2022-10-14T06:27:15.643Z,45.13
2022-10-14T06:29:42.998Z,43.78
2022-10-14T06:32:20.823Z,83.22
2022-10-14T06:34:48.197Z,55.22
2022-10-14T06:37:15.625Z,44.13
2022-10-14T06:39:45.187Z,49.90
2022-10-14T06:42:19.973Z,48.15
2022-10-14T06:44:47.217Z,49.30
2022-10-14T06:47:14.449Z,46.83
2022-10-14T06:49:41.900Z,40.05
2022-10-14T06:52:09.855Z,48.97
2022-10-14T06:54:39.599Z,48.22
2022-10-14T06:57:13.832Z,44.63
2022-10-14T06:59:41.122Z,42.78
2022-10-14T07:02:10.814Z,41.97
2022-10-14T07:04:40.234Z,48.25
2022-10-14T07:07:08.744Z,47.00
2022-10-14T07:09:36.174Z,54.42
2022-10-14T07:12:03.827Z,46.78
2022-10-14T07:14:31.819Z,43.65
2022-10-14T07:17:00.570Z,44.15
2022-10-14T07:19:27.824Z,42.50
2022-10-14T07:21:55.053Z,43.67
2022-10-14T07:24:22.367Z,52.70
2022-10-14T07:26:49.717Z,42.88
2022-10-14T07:29:17.431Z,54.17
2022-10-14T07:31:47.411Z,43.53
2022-10-14T07:34:14.888Z,45.05
2022-10-14T07:36:42.313Z,44.45
2022-10-14T07:39:28.994Z,41.38
2022-10-14T07:42:02.855Z,43.38
2022-10-14T07:44:30.033Z,38.67
2022-10-14T07:47:07.018Z,47.10
2022-10-14T07:49:34.624Z,39.50
2022-10-14T07:52:02.713Z,41.60
2022-10-14T07:55:11.480Z,39.40
2022-10-14T07:57:42.259Z,40.10
2022-10-14T08:00:10.812Z,42.25
2022-10-14T08:02:41.223Z,45.58
2022-10-14T08:05:33.083Z,44.15
2022-10-14T08:07:58.746Z,42.17
2022-10-14T08:10:26.272Z,36.70
2022-10-14T08:12:53.482Z,35.78
2022-10-14T08:15:21.592Z,39.22
2022-10-14T08:17:48.743Z,39.80
2022-10-14T08:20:16.372Z,40.45
2022-10-14T08:22:43.836Z,42.67
2022-10-14T08:25:11.641Z,37.35
2022-10-14T08:27:50.797Z,41.05
2022-10-14T08:30:28.482Z,42.80
2022-10-14T08:32:56.123Z,42.42
2022-10-14T08:35:24.166Z,37.47
2022-10-14T08:38:02.735Z,34.15
2022-10-14T08:40:44.926Z,40.47
2022-10-14T08:43:31.321Z,41.03
2022-10-14T08:46:15.697Z,45.08
2022-10-14T08:48:44.818Z,37.63
2022-10-14T08:51:44.725Z,36.20
2022-10-14T08:54:23.540Z,43.17
2022-10-14T08:56:54.660Z,43.42
2022-10-14T08:59:25.447Z,48.33
2022-10-14T09:02:03.767Z,47.22
2022-10-14T09:04:36.212Z,48.90
2022-10-14T09:07:04.896Z,42.35
2022-10-14T09:09:46.931Z,45.97
2022-10-14T09:12:25.823Z,49.10
2022-10-14T09:15:45.839Z,41.95
2022-10-14T09:18:40.122Z,39.25
2022-10-14T09:21:51.801Z,46.75
2022-10-14T09:24:28.977Z,43.30
2022-10-14T09:27:12.671Z,46.45
2022-10-14T09:29:53.023Z,45.33
2022-10-14T09:32:46.889Z,41.97
2022-10-14T09:35:30.693Z,37.28
2022-10-14T09:38:20.004Z,39.47
2022-10-14T09:40:58.418Z,44.88
2022-10-14T09:43:30.101Z,37.50
2022-10-14T09:46:04.098Z,37.22
2022-10-14T09:48:46.590Z,34.05
2022-10-14T09:51:34.045Z,38.30
2022-10-14T09:54:05.119Z,35.80
2022-10-14T09:56:42.451Z,28.80
2022-10-14T09:59:22.547Z,29.95
2022-10-14T10:01:53.017Z,17.02
2022-10-14T10:04:43.088Z,6.43
2022-10-14T10:07:33.216Z,8.25
2022-10-14T10:10:17.429Z,9.73
2022-10-14T10:12:47.352Z,6.88
2022-10-14T10:15:21.501Z,8.35
2022-10-14T10:18:29.143Z,5.88
2022-10-14T10:29:54.389Z,6.03
2022-10-14T10:51:05.449Z,3.90
2022-10-14T10:54:16.888Z,5.00
2022-10-14T10:58:08.985Z,7.63
2022-10-14T11:01:07.884Z,8.10
2022-10-14T11:13:00.300Z,6.20
2022-10-14T11:16:23.674Z,3.38
2022-10-14T11:20:16.442Z,8.65
2022-10-14T11:39:54.002Z,4.35
2022-10-14T11:52:06.981Z,5.22
2022-10-14T11:55:33.433Z,3.80
2022-10-14T12:07:26.079Z,6.70
2022-10-14T12:11:44.754Z,4.40
2022-10-14T14:59:40.510Z,41.20
2022-10-14T16:49:07.770Z,16.90
2022-10-14T16:57:46.084Z,14.18
2022-10-14T17:26:13.208Z,33.55
2022-10-14T17:30:42.053Z,33.92
2022-10-14T17:33:19.148Z,35.35
2022-10-14T17:35:46.534Z,34.40
2022-10-14T17:38:15.901Z,32.35
2022-10-14T17:40:46.471Z,40.17
2022-10-14T17:43:23.139Z,36.33
2022-10-14T17:45:50.300Z,41.90
2022-10-14T17:48:18.566Z,38.22
2022-10-14T17:50:48.845Z,40.78
2022-10-14T17:53:16.250Z,40.63
2022-10-14T17:55:43.439Z,41.38
2022-10-14T17:58:11.738Z,44.75
2022-10-14T18:00:39.761Z,43.88
2022-10-14T18:03:08.581Z,49.20
2022-10-14T18:05:38.147Z,44.53
2022-10-14T18:08:05.686Z,50.80
2022-10-14T18:10:35.791Z,51.47
2022-10-14T18:13:13.012Z,50.15
2022-10-14T18:15:40.843Z,52.15
2022-10-14T18:18:08.561Z,47.35
2022-10-14T18:20:37.749Z,48.95
2022-10-14T18:23:05.006Z,49.10
2022-10-14T18:25:35.363Z,54.08
2022-10-14T18:28:07.258Z,50.50
2022-10-14T18:30:37.572Z,54.25
2022-10-14T18:33:13.351Z,49.65
2022-10-14T18:35:44.052Z,55.92
2022-10-14T18:38:14.144Z,55.92
2022-10-14T18:40:41.496Z,53.85
2022-10-14T18:43:10.734Z,58.97
2022-10-14T18:45:37.972Z,53.47
2022-10-14T18:48:05.554Z,54.58
2022-10-14T18:50:32.906Z,57.63
2022-10-14T18:53:00.654Z,55.13
2022-10-14T18:55:28.031Z,53.95
2022-10-14T18:57:55.508Z,55.45
2022-10-14T19:00:22.829Z,50.53
2022-10-14T19:02:50.114Z,60.55
2022-10-14T19:05:36.268Z,53.90
2022-10-14T19:36:15.470Z,44.85
2022-10-14T19:38:58.150Z,40.97
2022-10-14T19:41:43.130Z,45.35
2022-10-14T19:47:17.014Z,34.05
2022-10-14T20:58:09.770Z,24.55
2022-10-14T21:25:48.484Z,26.13
2022-10-14T21:29:13.866Z,28.52
2022-10-14T21:31:41.264Z,24.75
2022-10-14T21:34:26.910Z,22.98
2022-10-14T21:36:54.258Z,25.77
2022-10-14T21:39:24.179Z,24.27
2022-10-14T21:41:52.219Z,23.42
2022-10-14T21:57:26.496Z,20.65
2022-10-14T22:43:01.408Z,22.70
2022-10-14T22:45:28.657Z,25.55
2022-10-14T22:47:55.865Z,25.35
2022-10-14T22:50:23.113Z,19.58
2022-10-14T22:52:50.324Z,21.25
2022-10-14T23:12:05.722Z,20.60
2022-10-14T23:14:33.189Z,18.25
2022-10-14T23:17:00.411Z,21.05
2022-10-14T23:19:27.744Z,19.77
2022-10-14T23:21:54.941Z,20.98
2022-10-14T23:50:38.002Z,22.50
